Kine — C6WT4 — position and weather

sailwx.info

Track history (hours):
 
Tides and Currents Weather Stations Pressure Air Temp Water Temp Dewpoint Dewpoint Depression Visibility Wind Speed Wind Dir Waves Ship Positions

Kine

Last reported at 2018-Jan-22 03:51 UTC. Time now 2018-Jan-22 06:33 UTC.
Position N 57°11' E 011°34'.

Length 89 m; draft 5.2 m.

Type: Cargo ship. MMSI: 311117000.

Date/timePositionNaut miles runAvg speedWind from/ knotsBaromVisibWave heightAir tempDewpointWater temp
2018-Jan-22 03:51N 57°11' E 011°34'3 8.5
2018-Jan-22 03:30N 57°14' E 011°32'4 8.6
2018-Jan-22 03:00N 57°18' E 011°30'4 8.3
2018-Jan-22 02:30N 57°22' E 011°27'4 8.3
2018-Jan-22 02:00N 57°26' E 011°24'4 8.0
2018-Jan-22 01:30N 57°29' E 011°19'4 7.9
2018-Jan-22 01:00N 57°32' E 011°14'4 8.0
2018-Jan-22 00:30N 57°35' E 011°09'4 8.4
2018-Jan-22 00:00N 57°37' E 011°03'4 8.6
2018-Jan-21 23:30N 57°40' E 010°57'4 8.7
2018-Jan-21 23:00N 57°43' E 010°51'4 8.9
2018-Jan-21 22:30N 57°46' E 010°45'5 9.8
2018-Jan-21 21:59N 57°47' E 010°36'510.2
2018-Jan-21 21:28N 57°47' E 010°26'66 9.4
2018-Jan-21 14:28N 57°52' E 008°22'4 8.5
2018-Jan-21 14:00N 57°52' E 008°15'4 8.1
2018-Jan-21 13:31N 57°52' E 008°08'4 7.4
2018-Jan-21 13:00N 57°53' E 008°01'3 6.8
2018-Jan-21 12:30N 57°53' E 007°54'3 6.3
2018-Jan-21 12:00N 57°53' E 007°49'3 6.5
2018-Jan-21 11:29N 57°54' E 007°42'3 6.9
2018-Jan-21 11:00N 57°54' E 007°36'4 7.2
2018-Jan-21 10:30N 57°55' E 007°30'4 7.3
2018-Jan-21 10:00N 57°55' E 007°23'4 7.3
2018-Jan-21 09:29N 57°55' E 007°16'4 7.4
2018-Jan-21 09:00N 57°56' E 007°09'4 7.6
2018-Jan-21 08:31N 57°56' E 007°02'4 7.1
2018-Jan-21 08:01N 57°56' E 006°55'4 7.0
2018-Jan-21 07:31N 57°57' E 006°49'3 6.9
2018-Jan-21 07:00N 57°58' E 006°43'3 6.9
2018-Jan-21 06:30N 57°59' E 006°36'3 6.5
2018-Jan-21 06:00N 58°01' E 006°31'3 7.0
2018-Jan-21 05:30N 58°03' E 006°25'4 8.0
2018-Jan-21 04:59N 58°05' E 006°19'4 8.1
2018-Jan-21 04:30N 58°08' E 006°13'4 7.8
2018-Jan-21 04:00N 58°10' E 006°08'4 7.8
2018-Jan-21 03:29N 58°12' E 006°01'4 7.8
2018-Jan-21 03:00N 58°15' E 005°56'4 7.6
2018-Jan-21 02:30N 58°18' E 005°51'4 7.1
2018-Jan-21 02:00N 58°21' E 005°47'4 7.1
2018-Jan-21 01:30N 58°23' E 005°43'4 7.3
2018-Jan-21 01:00N 58°26' E 005°39'4 8.1
2018-Jan-21 00:31N 58°30' E 005°35'4 8.3
2018-Jan-21 00:00N 58°33' E 005°31'4 8.4
2018-Jan-20 23:28N 58°37' E 005°27'4 8.3
2018-Jan-20 23:00N 58°41' E 005°23'4 7.4
2018-Jan-20 22:30N 58°44' E 005°19'3 6.6
2018-Jan-20 22:00N 58°46' E 005°15'3 6.5
2018-Jan-20 21:31N 58°49' E 005°12'3 6.6
2018-Jan-20 21:00N 58°52' E 005°09'4 7.7
2018-Jan-20 20:30N 58°55' E 005°05'4 8.2
2018-Jan-20 19:59N 58°59' E 005°01'4 8.0
2018-Jan-20 19:30N 59°02' E 004°57'4 8.3
2018-Jan-20 19:00N 59°06' E 004°53'50 7.9
2018-Jan-20 12:38N 59°55' E 004°34'1 7.7
2018-Jan-20 12:30N 59°56' E 004°34'4 7.5
2018-Jan-20 12:00N 59°60' E 004°33'4 7.3
2018-Jan-20 11:30N 60°03' E 004°32'4 7.4
2018-Jan-20 11:00N 60°07' E 004°31'4 7.8
2018-Jan-20 10:30N 60°11' E 004°32'4 7.3
2018-Jan-20 10:00N 60°15' E 004°31'3 6.2
2018-Jan-20 09:30N 60°18' E 004°31'3 6.3
2018-Jan-20 08:59N 60°21' E 004°31'4 7.6
2018-Jan-20 08:30N 60°25' E 004°30'4 8.5
2018-Jan-20 08:00N 60°29' E 004°29'4 7.4
2018-Jan-20 07:30N 60°33' E 004°30'3 6.9
2018-Jan-20 07:00N 60°36' E 004°29'4 7.3
2018-Jan-20 06:30N 60°40' E 004°28'4 7.9
2018-Jan-20 06:00N 60°44' E 004°26'3 6.9
2018-Jan-20 05:30N 60°47' E 004°26'3 5.7
2018-Jan-20 05:00N 60°50' E 004°26'3 6.4
2018-Jan-20 04:30N 60°53' E 004°25'3 6.1
2018-Jan-20 03:59N 60°56' E 004°25'3 5.8
2018-Jan-20 03:30N 60°59' E 004°26'3 6.1
2018-Jan-20 03:00N 61°02' E 004°25'3 6.1
2018-Jan-20 02:29N 61°05' E 004°25'3 6.5
2018-Jan-20 01:59N 61°08' E 004°25'3 7.0
2018-Jan-20 01:30N 61°12' E 004°25'4 7.8
2018-Jan-20 01:00N 61°16' E 004°25'4 7.9
2018-Jan-20 00:29N 61°20' E 004°25'4 8.1
2018-Jan-20 00:00N 61°24' E 004°26'4 8.2
2018-Jan-19 23:29N 61°28' E 004°26'4 8.2
2018-Jan-19 23:00N 61°32' E 004°26'4 7.6
2018-Jan-19 22:30N 61°36' E 004°26'4 7.2
2018-Jan-19 22:00N 61°39' E 004°27'4 7.1
2018-Jan-19 21:30N 61°43' E 004°28'3 6.9
2018-Jan-19 21:00N 61°46' E 004°30'4 7.1
2018-Jan-19 20:28N 61°49' E 004°33'3 7.0
2018-Jan-19 20:00N 61°52' E 004°36'4 7.3
2018-Jan-19 19:29N 61°56' E 004°40'4 7.3
2018-Jan-19 19:00N 61°59' E 004°44'4 7.7
2018-Jan-19 18:30N 62°02' E 004°48'4 7.5
2018-Jan-19 18:01N 62°05' E 004°52'4 7.7
2018-Jan-19 17:30N 62°09' E 004°56'4 8.2
2018-Jan-19 17:00N 62°12' E 005°00'4 8.1
2018-Jan-19 16:30N 62°16' E 005°05'4 8.5
2018-Jan-19 16:00N 62°19' E 005°10'4 8.6
2018-Jan-19 15:30N 62°23' E 005°16'5 9.1
2018-Jan-19 15:00N 62°26' E 005°22'4 8.9
2018-Jan-19 14:30N 62°29' E 005°28'4 8.7
2018-Jan-19 14:00N 62°33' E 005°34'4 8.1
2018-Jan-19 13:30N 62°36' E 005°40'4 7.8
2018-Jan-19 12:58N 62°39' E 005°46'4 7.9
2018-Jan-19 12:30N 62°42' E 005°51'4 8.0
2018-Jan-19 12:00N 62°45' E 005°56'4 7.6
2018-Jan-19 11:30N 62°48' E 006°01'4 7.9
2018-Jan-19 11:00N 62°51' E 006°07'4 7.8
2018-Jan-19 10:30N 62°54' E 006°13'4 7.4
2018-Jan-19 10:00N 62°57' E 006°18'4 7.2
2018-Jan-19 09:30N 62°59' E 006°23'3 7.0
2018-Jan-19 09:00N 63°02' E 006°28'3 6.9
2018-Jan-19 08:30N 63°05' E 006°33'4 7.2
2018-Jan-19 08:00N 63°08' E 006°38'4 7.4
2018-Jan-19 07:30N 63°11' E 006°42'4 7.3
2018-Jan-19 07:00N 63°13' E 006°47'4 7.3
2018-Jan-19 06:30N 63°16' E 006°53'4 7.4
2018-Jan-19 06:00N 63°19' E 006°58'4 7.4
2018-Jan-19 05:29N 63°22' E 007°03'4 7.3
2018-Jan-19 05:00N 63°25' E 007°09'3 6.9
2018-Jan-19 04:30N 63°27' E 007°13'4 7.8
2018-Jan-19 04:00N 63°31' E 007°19'4 7.7
2018-Jan-19 03:29N 63°34' E 007°24'4 7.4
2018-Jan-19 03:00N 63°37' E 007°29'4 7.5
2018-Jan-19 02:30N 63°39' E 007°35'4 7.5
2018-Jan-19 02:00N 63°42' E 007°40'4 7.5
2018-Jan-19 01:30N 63°45' E 007°46'4 7.9
2018-Jan-19 01:00N 63°48' E 007°52'4 7.8
2018-Jan-19 00:30N 63°51' E 007°57'4 7.8
2018-Jan-19 00:00N 63°54' E 008°02'4 7.5
2018-Jan-18 23:29N 63°57' E 008°07'110 7.2
2018-Jan-18 08:06N 65°25' E 010°43'1 5.4
2018-Jan-18 08:00N 65°25' E 010°44'3 5.7
2018-Jan-18 07:30N 65°28' E 010°47'3 5.8
2018-Jan-18 07:00N 65°31' E 010°50'3 6.1
2018-Jan-18 06:30N 65°33' E 010°54'3 6.1
2018-Jan-18 06:00N 65°36' E 010°57'3 6.7
2018-Jan-18 05:30N 65°39' E 011°02'3 6.9
2018-Jan-18 05:00N 65°42' E 011°06'3 7.1
2018-Jan-18 04:30N 65°45' E 011°08'32 7.0
2018-Jan-17 23:53N 66°14' E 011°43'  
Track history (hours):
 
Tides and Currents Weather Stations Pressure Air Temp Water Temp Dewpoint Dewpoint Depression Visibility Wind Speed Wind Dir Waves Ship Positions

Kine

Last reported at 2018-Jan-22 03:51 UTC. Time now 2018-Jan-22 06:33 UTC.
Position N 57°11' E 011°34'.

Length 89 m; draft 5.2 m.

Type: Cargo ship. MMSI: 311117000.

Date/timePositionNaut miles runAvg speedWind from/ knotsBaromVisibWave heightAir tempDewpointWater temp
2018-Jan-22 03:51N 57°11' E 011°34'3 8.5
2018-Jan-22 03:30N 57°14' E 011°32'4 8.6
2018-Jan-22 03:00N 57°18' E 011°30'4 8.3
2018-Jan-22 02:30N 57°22' E 011°27'4 8.3
2018-Jan-22 02:00N 57°26' E 011°24'4 8.0
2018-Jan-22 01:30N 57°29' E 011°19'4 7.9
2018-Jan-22 01:00N 57°32' E 011°14'4 8.0
2018-Jan-22 00:30N 57°35' E 011°09'4 8.4
2018-Jan-22 00:00N 57°37' E 011°03'4 8.6
2018-Jan-21 23:30N 57°40' E 010°57'4 8.7
2018-Jan-21 23:00N 57°43' E 010°51'4 8.9
2018-Jan-21 22:30N 57°46' E 010°45'5 9.8
2018-Jan-21 21:59N 57°47' E 010°36'510.2
2018-Jan-21 21:28N 57°47' E 010°26'66 9.4
2018-Jan-21 14:28N 57°52' E 008°22'4 8.5
2018-Jan-21 14:00N 57°52' E 008°15'4 8.1
2018-Jan-21 13:31N 57°52' E 008°08'4 7.4
2018-Jan-21 13:00N 57°53' E 008°01'3 6.8
2018-Jan-21 12:30N 57°53' E 007°54'3 6.3
2018-Jan-21 12:00N 57°53' E 007°49'3 6.5
2018-Jan-21 11:29N 57°54' E 007°42'3 6.9
2018-Jan-21 11:00N 57°54' E 007°36'4 7.2
2018-Jan-21 10:30N 57°55' E 007°30'4 7.3
2018-Jan-21 10:00N 57°55' E 007°23'4 7.3
2018-Jan-21 09:29N 57°55' E 007°16'4 7.4
2018-Jan-21 09:00N 57°56' E 007°09'4 7.6
2018-Jan-21 08:31N 57°56' E 007°02'4 7.1
2018-Jan-21 08:01N 57°56' E 006°55'4 7.0
2018-Jan-21 07:31N 57°57' E 006°49'3 6.9
2018-Jan-21 07:00N 57°58' E 006°43'3 6.9
2018-Jan-21 06:30N 57°59' E 006°36'3 6.5
2018-Jan-21 06:00N 58°01' E 006°31'3 7.0
2018-Jan-21 05:30N 58°03' E 006°25'4 8.0
2018-Jan-21 04:59N 58°05' E 006°19'4 8.1
2018-Jan-21 04:30N 58°08' E 006°13'4 7.8
2018-Jan-21 04:00N 58°10' E 006°08'4 7.8
2018-Jan-21 03:29N 58°12' E 006°01'4 7.8
2018-Jan-21 03:00N 58°15' E 005°56'4 7.6
2018-Jan-21 02:30N 58°18' E 005°51'4 7.1
2018-Jan-21 02:00N 58°21' E 005°47'4 7.1
2018-Jan-21 01:30N 58°23' E 005°43'4 7.3
2018-Jan-21 01:00N 58°26' E 005°39'4 8.1
2018-Jan-21 00:31N 58°30' E 005°35'4 8.3
2018-Jan-21 00:00N 58°33' E 005°31'4 8.4
2018-Jan-20 23:28N 58°37' E 005°27'4 8.3
2018-Jan-20 23:00N 58°41' E 005°23'4 7.4
2018-Jan-20 22:30N 58°44' E 005°19'3 6.6
2018-Jan-20 22:00N 58°46' E 005°15'3 6.5
2018-Jan-20 21:31N 58°49' E 005°12'3 6.6
2018-Jan-20 21:00N 58°52' E 005°09'4 7.7
2018-Jan-20 20:30N 58°55' E 005°05'4 8.2
2018-Jan-20 19:59N 58°59' E 005°01'4 8.0
2018-Jan-20 19:30N 59°02' E 004°57'4 8.3
2018-Jan-20 19:00N 59°06' E 004°53'50 7.9
2018-Jan-20 12:38N 59°55' E 004°34'1 7.7
2018-Jan-20 12:30N 59°56' E 004°34'4 7.5
2018-Jan-20 12:00N 59°60' E 004°33'4 7.3
2018-Jan-20 11:30N 60°03' E 004°32'4 7.4
2018-Jan-20 11:00N 60°07' E 004°31'4 7.8
2018-Jan-20 10:30N 60°11' E 004°32'4 7.3
2018-Jan-20 10:00N 60°15' E 004°31'3 6.2
2018-Jan-20 09:30N 60°18' E 004°31'3 6.3
2018-Jan-20 08:59N 60°21' E 004°31'4 7.6
2018-Jan-20 08:30N 60°25' E 004°30'4 8.5
2018-Jan-20 08:00N 60°29' E 004°29'4 7.4
2018-Jan-20 07:30N 60°33' E 004°30'3 6.9
2018-Jan-20 07:00N 60°36' E 004°29'4 7.3
2018-Jan-20 06:30N 60°40' E 004°28'4 7.9
2018-Jan-20 06:00N 60°44' E 004°26'3 6.9
2018-Jan-20 05:30N 60°47' E 004°26'3 5.7
2018-Jan-20 05:00N 60°50' E 004°26'3 6.4
2018-Jan-20 04:30N 60°53' E 004°25'3 6.1
2018-Jan-20 03:59N 60°56' E 004°25'3 5.8
2018-Jan-20 03:30N 60°59' E 004°26'3 6.1
2018-Jan-20 03:00N 61°02' E 004°25'3 6.1
2018-Jan-20 02:29N 61°05' E 004°25'3 6.5
2018-Jan-20 01:59N 61°08' E 004°25'3 7.0
2018-Jan-20 01:30N 61°12' E 004°25'4 7.8
2018-Jan-20 01:00N 61°16' E 004°25'4 7.9
2018-Jan-20 00:29N 61°20' E 004°25'4 8.1
2018-Jan-20 00:00N 61°24' E 004°26'4 8.2
2018-Jan-19 23:29N 61°28' E 004°26'4 8.2
2018-Jan-19 23:00N 61°32' E 004°26'4 7.6
2018-Jan-19 22:30N 61°36' E 004°26'4 7.2
2018-Jan-19 22:00N 61°39' E 004°27'4 7.1
2018-Jan-19 21:30N 61°43' E 004°28'3 6.9
2018-Jan-19 21:00N 61°46' E 004°30'4 7.1
2018-Jan-19 20:28N 61°49' E 004°33'3 7.0
2018-Jan-19 20:00N 61°52' E 004°36'4 7.3
2018-Jan-19 19:29N 61°56' E 004°40'4 7.3
2018-Jan-19 19:00N 61°59' E 004°44'4 7.7
2018-Jan-19 18:30N 62°02' E 004°48'4 7.5
2018-Jan-19 18:01N 62°05' E 004°52'4 7.7
2018-Jan-19 17:30N 62°09' E 004°56'4 8.2
2018-Jan-19 17:00N 62°12' E 005°00'4 8.1
2018-Jan-19 16:30N 62°16' E 005°05'4 8.5
2018-Jan-19 16:00N 62°19' E 005°10'4 8.6
2018-Jan-19 15:30N 62°23' E 005°16'5 9.1
2018-Jan-19 15:00N 62°26' E 005°22'4 8.9
2018-Jan-19 14:30N 62°29' E 005°28'4 8.7
2018-Jan-19 14:00N 62°33' E 005°34'4 8.1
2018-Jan-19 13:30N 62°36' E 005°40'4 7.8
2018-Jan-19 12:58N 62°39' E 005°46'4 7.9
2018-Jan-19 12:30N 62°42' E 005°51'4 8.0
2018-Jan-19 12:00N 62°45' E 005°56'4 7.6
2018-Jan-19 11:30N 62°48' E 006°01'4 7.9
2018-Jan-19 11:00N 62°51' E 006°07'4 7.8
2018-Jan-19 10:30N 62°54' E 006°13'4 7.4
2018-Jan-19 10:00N 62°57' E 006°18'4 7.2
2018-Jan-19 09:30N 62°59' E 006°23'3 7.0
2018-Jan-19 09:00N 63°02' E 006°28'3 6.9
2018-Jan-19 08:30N 63°05' E 006°33'4 7.2
2018-Jan-19 08:00N 63°08' E 006°38'4 7.4
2018-Jan-19 07:30N 63°11' E 006°42'4 7.3
2018-Jan-19 07:00N 63°13' E 006°47'4 7.3
2018-Jan-19 06:30N 63°16' E 006°53'4 7.4
2018-Jan-19 06:00N 63°19' E 006°58'4 7.4
2018-Jan-19 05:29N 63°22' E 007°03'4 7.3
2018-Jan-19 05:00N 63°25' E 007°09'3 6.9
2018-Jan-19 04:30N 63°27' E 007°13'4 7.8
2018-Jan-19 04:00N 63°31' E 007°19'4 7.7
2018-Jan-19 03:29N 63°34' E 007°24'4 7.4
2018-Jan-19 03:00N 63°37' E 007°29'4 7.5
2018-Jan-19 02:30N 63°39' E 007°35'4 7.5
2018-Jan-19 02:00N 63°42' E 007°40'4 7.5
2018-Jan-19 01:30N 63°45' E 007°46'4 7.9
2018-Jan-19 01:00N 63°48' E 007°52'4 7.8
2018-Jan-19 00:30N 63°51' E 007°57'4 7.8
2018-Jan-19 00:00N 63°54' E 008°02'4 7.5
2018-Jan-18 23:29N 63°57' E 008°07'110 7.2
2018-Jan-18 08:06N 65°25' E 010°43'1 5.4
2018-Jan-18 08:00N 65°25' E 010°44'3 5.7
2018-Jan-18 07:30N 65°28' E 010°47'3 5.8
2018-Jan-18 07:00N 65°31' E 010°50'3 6.1
2018-Jan-18 06:30N 65°33' E 010°54'3 6.1
2018-Jan-18 06:00N 65°36' E 010°57'3 6.7
2018-Jan-18 05:30N 65°39' E 011°02'3 6.9
2018-Jan-18 05:00N 65°42' E 011°06'3 7.1
2018-Jan-18 04:30N 65°45' E 011°08'32 7.0
2018-Jan-17 23:53N 66°14' E 011°43'  

Dump ship's entire track history